createdAt,value
2018-11-22T00:00:30.230Z,927.17
2018-11-22T00:02:01.803Z,927.14
2018-11-22T00:03:33.377Z,927.20
2018-11-22T00:05:04.945Z,927.22
2018-11-22T00:06:36.568Z,927.23
2018-11-22T00:08:08.089Z,927.23
2018-11-22T00:09:40.497Z,927.24
2018-11-22T00:11:11.235Z,927.25
2018-11-22T00:12:42.804Z,927.27
2018-11-22T00:14:14.375Z,927.28
2018-11-22T00:17:17.522Z,927.34
2018-11-22T00:18:49.091Z,927.31
2018-11-22T00:20:20.662Z,927.34
2018-11-22T00:21:52.234Z,927.35
2018-11-22T00:23:23.880Z,927.33
2018-11-22T00:24:55.379Z,927.37
2018-11-22T00:26:26.950Z,927.39
2018-11-22T00:27:58.522Z,927.41
2018-11-22T00:29:30.193Z,927.45
2018-11-22T00:31:01.664Z,927.47
2018-11-22T00:32:33.236Z,927.44
2018-11-22T00:34:04.808Z,927.46
2018-11-22T00:35:36.381Z,927.45
2018-11-22T00:37:07.952Z,927.51
2018-11-22T00:38:39.523Z,927.49
2018-11-22T00:40:11.095Z,927.46
2018-11-22T00:41:42.667Z,927.48
2018-11-22T00:43:14.239Z,927.47
2018-11-22T00:44:45.811Z,927.48
2018-11-22T00:46:17.382Z,927.46
2018-11-22T00:47:49.055Z,927.49
2018-11-22T00:49:20.526Z,927.48
2018-11-22T00:50:52.097Z,927.51
2018-11-22T00:52:23.669Z,927.49
2018-11-22T00:53:55.241Z,927.48
2018-11-22T00:55:26.825Z,927.45
2018-11-22T00:56:58.386Z,927.47
2018-11-22T00:58:29.957Z,927.41
2018-11-22T01:00:01.528Z,927.39
2018-11-22T01:01:33.101Z,927.40
2018-11-22T01:03:04.673Z,927.42
2018-11-22T01:04:36.244Z,927.40
2018-11-22T01:06:07.916Z,927.42
2018-11-22T01:07:39.388Z,927.43
2018-11-22T01:09:10.960Z,927.35
2018-11-22T01:10:42.532Z,927.39
2018-11-22T01:12:14.325Z,927.39
2018-11-22T01:13:45.675Z,927.41
2018-11-22T01:15:17.254Z,927.41
2018-11-22T01:16:48.818Z,927.42
2018-11-22T01:18:20.390Z,927.43
2018-11-22T01:19:51.963Z,927.41
2018-11-22T01:21:23.534Z,927.42
2018-11-22T01:24:26.778Z,927.42
2018-11-22T01:25:58.250Z,927.40
2018-11-22T01:27:29.822Z,927.41
2018-11-22T01:29:01.394Z,927.42
2018-11-22T01:30:32.967Z,927.42
2018-11-22T01:32:04.537Z,927.43
2018-11-22T01:33:36.110Z,927.41
2018-11-22T01:35:07.682Z,927.38
2018-11-22T01:36:39.253Z,927.39
2018-11-22T01:38:10.825Z,927.35
2018-11-22T01:39:42.398Z,927.40
2018-11-22T01:41:13.970Z,927.40
2018-11-22T01:42:45.641Z,927.43
2018-11-22T01:44:17.114Z,927.42
2018-11-22T01:45:48.686Z,927.44
2018-11-22T01:47:20.258Z,927.41
2018-11-22T01:48:51.830Z,927.40
2018-11-22T01:50:23.401Z,927.39
2018-11-22T01:51:54.973Z,927.37
2018-11-22T01:53:26.549Z,927.39
2018-11-22T01:54:58.117Z,927.33
2018-11-22T01:56:29.689Z,927.35
2018-11-22T01:58:01.262Z,927.35
2018-11-22T01:59:32.836Z,927.29
2018-11-22T02:01:04.507Z,927.31
2018-11-22T02:02:35.977Z,927.28
2018-11-22T02:04:07.549Z,927.28
2018-11-22T02:05:39.121Z,927.26
2018-11-22T02:07:10.693Z,927.25
2018-11-22T02:08:42.266Z,927.22
2018-11-22T02:10:13.837Z,927.21
2018-11-22T02:11:45.409Z,927.20
2018-11-22T02:13:16.986Z,927.14
2018-11-22T02:14:48.553Z,927.16
2018-11-22T02:16:20.125Z,927.10
2018-11-22T02:17:51.698Z,927.09
2018-11-22T02:19:23.577Z,927.09
2018-11-22T02:20:54.841Z,927.04
2018-11-22T02:22:26.413Z,927.01
2018-11-22T02:23:57.985Z,927.03
2018-11-22T02:25:29.558Z,926.98
2018-11-22T02:27:01.133Z,927.00
2018-11-22T02:28:32.702Z,926.95
2018-11-22T02:30:04.274Z,926.94
2018-11-22T02:31:35.847Z,926.93
2018-11-22T02:33:07.419Z,926.89
2018-11-22T02:34:38.991Z,926.92
2018-11-22T02:36:10.563Z,926.90
2018-11-22T02:37:42.241Z,926.89
2018-11-22T02:39:13.708Z,926.83
2018-11-22T02:40:45.282Z,926.84
2018-11-22T02:42:16.855Z,926.87
2018-11-22T02:43:48.424Z,926.88
2018-11-22T02:45:20.000Z,926.85
2018-11-22T02:48:23.141Z,926.82
2018-11-22T02:49:54.713Z,926.79
2018-11-22T02:51:26.286Z,926.77
2018-11-22T02:52:57.857Z,926.71
2018-11-22T02:54:29.429Z,926.76
2018-11-22T02:56:01.102Z,926.70
2018-11-22T02:57:32.575Z,926.67
2018-11-22T02:59:04.152Z,926.62
2018-11-22T03:00:35.717Z,926.61
2018-11-22T03:02:07.289Z,926.60
2018-11-22T03:05:10.434Z,926.56
2018-11-22T03:06:42.006Z,926.52
2018-11-22T03:08:13.578Z,926.51
2018-11-22T03:09:45.151Z,926.48
2018-11-22T03:11:16.722Z,926.45
2018-11-22T03:12:48.353Z,926.46
2018-11-22T03:14:19.966Z,926.44
2018-11-22T03:15:51.438Z,926.41
2018-11-22T03:17:23.010Z,926.39
2018-11-22T03:18:54.582Z,926.36
2018-11-22T03:20:26.156Z,926.35
2018-11-22T03:21:57.727Z,926.30
2018-11-22T03:23:29.298Z,926.31
2018-11-22T03:25:00.870Z,926.31
2018-11-22T03:26:32.444Z,926.27
2018-11-22T03:28:04.014Z,926.26
2018-11-22T03:29:35.590Z,926.27
2018-11-22T03:31:07.159Z,926.26
2018-11-22T03:32:38.853Z,926.22
2018-11-22T03:34:10.301Z,926.16
2018-11-22T03:37:13.444Z,926.17
2018-11-22T03:38:45.016Z,926.17
2018-11-22T03:40:16.588Z,926.15
2018-11-22T03:41:48.160Z,926.13
2018-11-22T03:43:19.730Z,926.11
2018-11-22T03:44:51.302Z,926.11
2018-11-22T03:46:22.874Z,926.07
2018-11-22T03:47:54.446Z,926.07
2018-11-22T03:49:26.017Z,926.01
2018-11-22T03:50:57.689Z,926.00
2018-11-22T03:52:29.160Z,925.93
2018-11-22T03:54:00.733Z,925.90
2018-11-22T03:55:32.303Z,925.90
2018-11-22T03:57:03.875Z,925.85
2018-11-22T03:58:35.446Z,925.77
2018-11-22T04:00:07.021Z,925.82
2018-11-22T04:01:38.589Z,925.80
2018-11-22T04:03:10.161Z,925.78
2018-11-22T04:04:41.732Z,925.81
2018-11-22T04:06:13.304Z,925.74
2018-11-22T04:09:16.554Z,925.77
2018-11-22T04:10:48.020Z,925.71
2018-11-22T04:12:19.591Z,925.70
2018-11-22T04:13:51.161Z,925.71
2018-11-22T04:15:22.734Z,925.66
2018-11-22T04:16:54.609Z,925.70
2018-11-22T04:18:25.876Z,925.62
2018-11-22T04:19:57.447Z,925.67
2018-11-22T04:21:29.019Z,925.61
2018-11-22T04:23:00.593Z,925.61
2018-11-22T04:24:32.163Z,925.60
2018-11-22T04:26:03.733Z,925.57
2018-11-22T04:27:35.406Z,925.58
2018-11-22T04:29:06.879Z,925.51
2018-11-22T04:30:38.447Z,925.55
2018-11-22T04:32:10.019Z,925.58
2018-11-22T04:33:41.792Z,925.56
2018-11-22T04:35:13.163Z,925.56
2018-11-22T04:36:44.733Z,925.47
2018-11-22T04:38:16.305Z,925.46
2018-11-22T04:39:47.877Z,925.49
2018-11-22T04:41:19.448Z,925.47
2018-11-22T04:42:51.019Z,925.44
2018-11-22T04:44:22.591Z,925.41
2018-11-22T04:45:54.262Z,925.44
2018-11-22T04:47:25.734Z,925.47
2018-11-22T04:48:57.305Z,925.40
2018-11-22T04:50:28.876Z,925.42
2018-11-22T04:52:00.491Z,925.42
2018-11-22T04:53:32.020Z,925.38
2018-11-22T04:55:03.595Z,925.35
2018-11-22T04:56:35.162Z,925.34
2018-11-22T04:58:06.734Z,925.33
2018-11-22T04:59:38.306Z,925.35
2018-11-22T05:01:09.877Z,925.36
2018-11-22T05:02:41.449Z,925.32
2018-11-22T05:04:13.121Z,925.36
2018-11-22T05:05:44.592Z,925.40
2018-11-22T05:07:16.164Z,925.33
2018-11-22T05:08:47.736Z,925.37
2018-11-22T05:10:19.308Z,925.35
2018-11-22T05:11:50.879Z,925.37
2018-11-22T05:13:22.453Z,925.39
2018-11-22T05:14:54.327Z,925.37
2018-11-22T05:16:25.594Z,925.40
2018-11-22T05:17:57.166Z,925.33
2018-11-22T05:19:28.738Z,925.31
2018-11-22T05:21:00.310Z,925.29
2018-11-22T05:22:31.981Z,925.30
2018-11-22T05:24:03.453Z,925.28
2018-11-22T05:25:35.025Z,925.28
2018-11-22T05:27:06.597Z,925.24
2018-11-22T05:28:38.168Z,925.23
2018-11-22T05:30:09.740Z,925.25
2018-11-22T05:31:41.820Z,925.26
2018-11-22T05:33:12.883Z,925.25
2018-11-22T05:34:44.455Z,925.24
2018-11-22T05:36:16.027Z,925.18
2018-11-22T05:37:47.599Z,925.18
2018-11-22T05:39:19.171Z,925.17
2018-11-22T05:40:51.045Z,925.21
2018-11-22T05:42:22.313Z,925.18
2018-11-22T05:43:53.885Z,925.11
2018-11-22T05:45:25.457Z,925.13
2018-11-22T05:48:28.600Z,925.16
2018-11-22T05:50:00.172Z,925.13
2018-11-22T05:51:31.744Z,925.17
2018-11-22T05:53:03.315Z,925.15
2018-11-22T05:54:34.887Z,925.17
2018-11-22T05:56:06.460Z,925.12
2018-11-22T05:57:38.031Z,925.10
2018-11-22T05:59:09.603Z,925.11
2018-11-22T06:00:41.275Z,925.10
2018-11-22T06:02:12.747Z,925.13
2018-11-22T06:03:44.318Z,925.10
2018-11-22T06:05:15.890Z,925.14
2018-11-22T06:06:47.462Z,925.13
2018-11-22T06:08:19.037Z,925.12
2018-11-22T06:09:50.606Z,925.12
2018-11-22T06:11:22.178Z,925.14
2018-11-22T06:12:54.054Z,925.17
2018-11-22T06:14:25.321Z,925.19
2018-11-22T06:15:56.893Z,925.29
2018-11-22T06:17:28.503Z,925.27
2018-11-22T06:19:00.137Z,925.30
2018-11-22T06:20:31.611Z,925.27
2018-11-22T06:22:03.180Z,925.23
2018-11-22T06:23:34.751Z,925.28
2018-11-22T06:25:06.324Z,925.31
2018-11-22T06:26:37.895Z,925.29
2018-11-22T06:28:09.467Z,925.27
2018-11-22T06:31:12.610Z,925.24
2018-11-22T06:32:44.182Z,925.26
2018-11-22T06:34:15.753Z,925.26
2018-11-22T06:35:47.325Z,925.22
2018-11-22T06:37:18.997Z,925.21
2018-11-22T06:40:22.043Z,925.18
2018-11-22T06:41:53.612Z,925.23
2018-11-22T06:43:25.183Z,925.20
2018-11-22T06:44:56.754Z,925.25
2018-11-22T06:46:28.326Z,925.25
2018-11-22T06:47:59.897Z,925.27
2018-11-22T06:49:31.470Z,925.31
2018-11-22T06:51:03.041Z,925.28
2018-11-22T06:52:34.612Z,925.26
2018-11-22T06:54:06.185Z,925.29
2018-11-22T06:55:37.855Z,925.31
2018-11-22T06:57:09.327Z,925.31
2018-11-22T06:58:40.897Z,925.33
2018-11-22T07:00:12.470Z,925.32
2018-11-22T07:03:15.612Z,925.36
2018-11-22T07:04:47.183Z,925.36
2018-11-22T07:06:18.754Z,925.37
2018-11-22T07:07:50.325Z,925.38
2018-11-22T07:09:21.896Z,925.43
2018-11-22T07:10:53.468Z,925.49
2018-11-22T07:12:25.039Z,925.51
2018-11-22T07:13:56.613Z,925.54
2018-11-22T07:15:28.281Z,925.54
2018-11-22T07:16:59.756Z,925.54
2018-11-22T07:18:31.324Z,925.58
2018-11-22T07:20:02.895Z,925.58
2018-11-22T07:21:34.466Z,925.60
2018-11-22T07:23:06.039Z,925.65
2018-11-22T07:24:37.610Z,925.60
2018-11-22T07:26:09.184Z,925.61
2018-11-22T07:27:41.057Z,925.64
2018-11-22T07:29:12.324Z,925.64
2018-11-22T07:30:43.896Z,925.66
2018-11-22T07:32:15.469Z,925.67
2018-11-22T07:33:47.139Z,925.66
2018-11-22T07:35:18.610Z,925.64
2018-11-22T07:36:50.715Z,925.64
2018-11-22T07:38:21.753Z,925.66
2018-11-22T07:39:53.325Z,925.66
2018-11-22T07:41:24.896Z,925.68
2018-11-22T07:42:56.468Z,925.70
2018-11-22T07:44:28.039Z,925.69
2018-11-22T07:45:59.611Z,925.71
2018-11-22T07:47:31.186Z,925.69
2018-11-22T07:49:02.754Z,925.71
2018-11-22T07:50:34.325Z,925.73
2018-11-22T07:52:05.997Z,925.74
2018-11-22T07:53:37.471Z,925.72
2018-11-22T07:55:09.040Z,925.72
2018-11-22T07:56:40.688Z,925.76
2018-11-22T07:58:12.183Z,925.80
2018-11-22T07:59:43.754Z,925.77
2018-11-22T08:01:15.326Z,925.82
2018-11-22T08:02:46.921Z,925.84
2018-11-22T08:04:18.470Z,925.84
2018-11-22T08:05:50.041Z,925.85
2018-11-22T08:07:21.612Z,925.84
2018-11-22T08:08:53.184Z,925.84
2018-11-22T08:10:24.859Z,925.89
2018-11-22T08:11:56.332Z,925.85
2018-11-22T08:13:27.899Z,925.86
2018-11-22T08:14:59.673Z,925.85
2018-11-22T08:18:02.614Z,925.93
2018-11-22T08:19:34.185Z,925.95
2018-11-22T08:21:05.757Z,925.91
2018-11-22T08:22:37.327Z,925.92
2018-11-22T08:24:09.101Z,925.96
2018-11-22T08:25:40.470Z,926.00
2018-11-22T08:27:12.044Z,926.03
2018-11-22T08:28:43.614Z,926.02
2018-11-22T08:30:15.285Z,925.93
2018-11-22T08:33:18.329Z,926.00
2018-11-22T08:36:21.779Z,925.99
2018-11-22T08:37:53.044Z,926.02
2018-11-22T08:39:24.616Z,926.06
2018-11-22T08:40:56.939Z,926.07
2018-11-22T08:42:27.964Z,926.07
2018-11-22T08:43:59.556Z,926.09
2018-11-22T08:45:31.106Z,926.07
2018-11-22T08:48:35.060Z,926.07
2018-11-22T08:50:05.719Z,926.05
2018-11-22T08:51:37.208Z,926.05
2018-11-22T08:53:09.429Z,926.15
2018-11-22T08:54:40.367Z,926.18
2018-11-22T08:56:12.213Z,926.18
2018-11-22T08:59:15.260Z,926.14
2018-11-22T09:02:18.198Z,926.10
2018-11-22T09:03:50.139Z,926.16
2018-11-22T09:06:53.125Z,926.19
2018-11-22T09:08:24.597Z,926.26
2018-11-22T09:09:56.682Z,926.25
2018-11-22T09:11:28.527Z,926.23
2018-11-22T09:14:31.615Z,926.31
2018-11-22T09:16:02.448Z,926.34
2018-11-22T09:17:33.970Z,926.35
2018-11-22T09:19:05.675Z,926.34
2018-11-22T09:20:38.301Z,926.41
2018-11-22T09:22:09.342Z,926.38
2018-11-22T09:23:40.472Z,926.44
2018-11-22T09:25:13.176Z,926.44
2018-11-22T09:26:45.959Z,926.49
2018-11-22T09:28:15.325Z,926.45
2018-11-22T09:29:47.802Z,926.50
2018-11-22T09:31:20.396Z,926.48
2018-11-22T09:32:51.483Z,926.58
2018-11-22T09:34:21.301Z,926.63
2018-11-22T09:35:53.986Z,926.63
2018-11-22T09:37:26.322Z,926.80
2018-11-22T09:38:57.601Z,926.73
2018-11-22T09:40:30.059Z,926.87
2018-11-22T09:42:00.955Z,926.84
2018-11-22T09:43:30.862Z,926.97
2018-11-22T09:46:34.884Z,926.86
2018-11-22T09:48:05.548Z,926.81
2018-11-22T09:49:38.188Z,926.75
2018-11-22T09:51:09.031Z,926.90
2018-11-22T09:52:40.201Z,926.80
2018-11-22T09:54:12.015Z,926.89
2018-11-22T09:55:43.995Z,926.89
2018-11-22T09:57:15.298Z,926.84
2018-11-22T09:58:46.693Z,926.82
2018-11-22T10:00:18.478Z,926.91
2018-11-22T10:03:21.250Z,927.16
2018-11-22T10:04:54.485Z,927.24
2018-11-22T10:06:25.232Z,927.12
2018-11-22T10:07:57.365Z,927.13
2018-11-22T10:09:27.952Z,927.26
2018-11-22T10:10:59.244Z,927.14
2018-11-22T10:14:02.588Z,927.09
2018-11-22T10:15:34.196Z,927.13
2018-11-22T10:17:06.001Z,927.15
2018-11-22T10:18:37.162Z,927.04
2018-11-22T10:20:09.134Z,927.20
2018-11-22T10:21:41.260Z,927.12
2018-11-22T10:23:13.278Z,927.16
2018-11-22T10:24:43.332Z,927.31
2018-11-22T10:26:15.025Z,927.21
2018-11-22T10:27:47.932Z,927.32
2018-11-22T10:29:18.240Z,927.20
2018-11-22T10:30:49.728Z,927.14
2018-11-22T10:32:22.004Z,927.17
2018-11-22T10:33:53.718Z,927.14
2018-11-22T10:35:24.560Z,927.20
2018-11-22T10:38:28.098Z,927.25
2018-11-22T10:40:00.164Z,927.22
2018-11-22T10:41:31.063Z,927.27
2018-11-22T10:44:34.427Z,927.20
2018-11-22T10:46:05.540Z,927.28
2018-11-22T10:47:37.742Z,927.28
2018-11-22T10:49:09.721Z,927.28
2018-11-22T10:50:40.697Z,927.30
2018-11-22T10:52:12.798Z,927.31
2018-11-22T10:53:44.459Z,927.32
2018-11-22T10:55:16.494Z,927.31
2018-11-22T10:56:47.053Z,927.33
2018-11-22T10:58:18.571Z,927.34
2018-11-22T10:59:49.872Z,927.41
2018-11-22T11:01:21.384Z,927.51
2018-11-22T11:02:53.001Z,927.40
2018-11-22T11:04:24.713Z,927.54
2018-11-22T11:05:56.098Z,927.40
2018-11-22T11:08:59.215Z,927.52
2018-11-22T11:10:30.670Z,927.53
2018-11-22T11:13:33.890Z,927.52
2018-11-22T11:16:37.081Z,927.43
2018-11-22T11:18:09.256Z,927.47
2018-11-22T11:19:40.450Z,927.52
2018-11-22T11:21:11.736Z,927.47
2018-11-22T11:22:43.526Z,927.51
2018-11-22T11:24:14.895Z,927.51
2018-11-22T11:25:46.470Z,927.59
2018-11-22T11:27:18.256Z,927.49
2018-11-22T11:28:49.636Z,927.47
2018-11-22T11:30:21.751Z,927.58
2018-11-22T11:31:53.332Z,927.62
2018-11-22T11:33:24.391Z,927.65
2018-11-22T11:34:56.163Z,927.63
2018-11-22T11:36:27.543Z,927.69
2018-11-22T11:37:59.225Z,927.65
2018-11-22T11:39:30.705Z,927.65
2018-11-22T11:41:02.612Z,927.67
2018-11-22T11:42:33.889Z,927.61
2018-11-22T11:44:05.484Z,927.66
2018-11-22T11:45:38.196Z,927.60
2018-11-22T11:48:40.947Z,927.56
2018-11-22T11:50:11.779Z,927.63
2018-11-22T11:53:15.459Z,927.68
2018-11-22T11:56:18.676Z,927.55
2018-11-22T11:57:50.162Z,927.58
2018-11-22T11:59:21.459Z,927.58
2018-11-22T12:00:53.306Z,927.54
2018-11-22T12:02:25.044Z,927.56
2018-11-22T12:03:56.020Z,927.61
2018-11-22T12:05:27.607Z,927.63
2018-11-22T12:10:02.650Z,927.60
2018-11-22T12:11:35.590Z,927.64
2018-11-22T12:13:06.031Z,927.56
2018-11-22T12:14:38.604Z,927.55
2018-11-22T12:17:40.423Z,927.68
2018-11-22T12:20:43.437Z,927.56
2018-11-22T12:22:15.018Z,927.52
2018-11-22T12:23:47.133Z,927.56
2018-11-22T12:25:18.184Z,927.49
2018-11-22T12:26:49.970Z,927.35
2018-11-22T12:29:53.002Z,927.53
2018-11-22T12:31:24.569Z,927.55
2018-11-22T12:34:27.686Z,927.51
2018-11-22T12:35:59.424Z,927.48
2018-11-22T12:37:31.158Z,927.44
2018-11-22T12:39:02.437Z,927.46
2018-11-22T12:40:34.040Z,927.50
2018-11-22T12:42:05.605Z,927.43
2018-11-22T12:46:40.816Z,927.46
2018-11-22T12:48:11.999Z,927.40
2018-11-22T12:49:43.580Z,927.41
2018-11-22T12:51:15.332Z,927.43
2018-11-22T12:52:46.953Z,927.42
2018-11-22T12:54:18.388Z,927.38
2018-11-22T12:55:49.870Z,927.42
2018-11-22T12:57:21.457Z,927.43
2018-11-22T13:00:25.019Z,927.44
2018-11-22T13:01:57.412Z,927.54
2018-11-22T13:03:28.016Z,927.88
2018-11-22T13:04:59.965Z,927.45
2018-11-22T13:06:31.538Z,927.26
2018-11-22T13:08:02.740Z,927.52
2018-11-22T13:09:34.475Z,927.73
2018-11-22T13:11:05.729Z,927.80
2018-11-22T13:12:37.415Z,927.59
2018-11-22T13:14:08.899Z,927.47
2018-11-22T13:18:43.889Z,927.49
2018-11-22T13:20:15.559Z,927.54
2018-11-22T13:23:18.410Z,927.59
2018-11-22T13:24:50.200Z,927.67
2018-11-22T13:26:21.890Z,927.43
2018-11-22T13:27:53.573Z,927.15
2018-11-22T13:29:25.150Z,927.19
2018-11-22T13:30:56.492Z,927.39
2018-11-22T13:32:28.079Z,927.55
2018-11-22T13:34:00.758Z,927.80
2018-11-22T13:35:31.639Z,927.48
2018-11-22T13:38:34.273Z,927.65
2018-11-22T13:40:05.862Z,927.63
2018-11-22T13:41:37.439Z,927.74
2018-11-22T13:43:09.025Z,927.72
2018-11-22T13:44:40.608Z,927.70
2018-11-22T13:46:12.194Z,927.45
2018-11-22T13:47:45.502Z,927.18
2018-11-22T13:50:47.367Z,927.39
2018-11-22T13:52:19.292Z,927.53
2018-11-22T13:53:50.161Z,927.76
2018-11-22T13:55:21.693Z,927.75
2018-11-22T13:56:53.918Z,927.59
2018-11-22T14:01:28.390Z,927.54
2018-11-22T14:02:59.714Z,927.43
2018-11-22T14:04:31.331Z,927.31
2018-11-22T14:07:34.363Z,927.61
2018-11-22T14:09:06.582Z,927.45
2018-11-22T14:10:37.531Z,927.33
2018-11-22T14:12:09.423Z,927.38
2018-11-22T14:13:41.103Z,927.37
2018-11-22T14:15:12.500Z,927.41
2018-11-22T14:16:44.603Z,927.42
2018-11-22T14:18:15.858Z,927.58
2018-11-22T14:21:19.035Z,927.38
2018-11-22T14:22:50.519Z,927.50
2018-11-22T14:24:21.786Z,927.54
2018-11-22T14:27:25.158Z,927.38
2018-11-22T14:28:56.545Z,927.09
2018-11-22T14:30:28.123Z,927.26
2018-11-22T14:31:59.710Z,927.31
2018-11-22T14:33:31.297Z,927.24
2018-11-22T14:36:34.674Z,927.06
2018-11-22T14:38:06.054Z,927.39
2018-11-22T14:39:37.644Z,927.50
2018-11-22T14:41:09.427Z,927.33
2018-11-22T14:42:40.810Z,927.25
2018-11-22T14:45:44.333Z,927.09
2018-11-22T14:47:15.565Z,927.20
2018-11-22T14:48:47.352Z,927.22
2018-11-22T14:50:19.475Z,927.12
2018-11-22T14:53:21.902Z,927.15
2018-11-22T14:54:53.823Z,927.17
2018-11-22T14:56:26.433Z,927.28
2018-11-22T14:57:56.959Z,927.26
2018-11-22T14:59:28.266Z,927.22
2018-11-22T15:01:00.258Z,927.01
2018-11-22T15:02:31.417Z,926.99
2018-11-22T15:04:02.991Z,927.05
2018-11-22T15:05:34.679Z,927.15
2018-11-22T15:08:37.742Z,926.89
2018-11-22T15:10:09.330Z,926.97
2018-11-22T15:11:41.054Z,926.91
2018-11-22T15:13:12.807Z,926.65
2018-11-22T15:17:47.583Z,926.86
2018-11-22T15:19:19.455Z,926.93
2018-11-22T15:22:22.164Z,926.73
2018-11-22T15:23:54.176Z,926.70
2018-11-22T15:25:25.264Z,926.94
2018-11-22T15:26:57.545Z,927.00
2018-11-22T15:28:28.420Z,926.72
2018-11-22T15:30:00.236Z,926.47
2018-11-22T15:33:03.326Z,926.52
2018-11-22T15:36:06.881Z,926.73
2018-11-22T15:37:38.523Z,926.70
2018-11-22T15:39:10.250Z,926.49
2018-11-22T15:42:13.043Z,926.43
2018-11-22T15:43:44.586Z,926.06
2018-11-22T15:45:15.824Z,926.16
2018-11-22T15:46:47.540Z,926.25
2018-11-22T15:48:18.996Z,926.40
2018-11-22T15:49:50.584Z,926.56
2018-11-22T15:51:22.168Z,926.71
2018-11-22T15:54:25.341Z,926.37
2018-11-22T15:55:56.928Z,926.37
2018-11-22T15:57:28.616Z,926.20
2018-11-22T15:59:00.349Z,926.17
2018-11-22T16:00:32.042Z,926.30
2018-11-22T16:02:03.283Z,926.18
2018-11-22T16:05:06.535Z,926.07
2018-11-22T16:06:38.034Z,925.80
2018-11-22T16:08:09.639Z,925.66
2018-11-22T16:09:41.213Z,925.67
2018-11-22T16:11:14.923Z,925.61
2018-11-22T16:17:20.042Z,926.04
2018-11-22T16:18:50.913Z,926.00
2018-11-22T16:24:57.587Z,925.46
2018-11-22T16:26:28.636Z,925.49
2018-11-22T16:28:00.282Z,925.97
2018-11-22T16:29:31.807Z,925.94
2018-11-22T16:31:03.621Z,925.71
2018-11-22T16:32:34.978Z,925.69
2018-11-22T16:34:06.719Z,925.61
2018-11-22T16:35:38.895Z,925.33
2018-11-22T16:37:10.181Z,925.71
2018-11-22T16:38:41.329Z,926.12
2018-11-22T16:41:44.503Z,925.15
2018-11-22T16:43:17.590Z,925.29
2018-11-22T16:46:19.267Z,925.50
2018-11-22T16:49:22.437Z,925.15
2018-11-22T16:50:54.021Z,925.18
2018-11-22T16:52:25.910Z,925.23
2018-11-22T16:55:28.877Z,925.85
2018-11-22T16:58:31.946Z,925.39
2018-11-22T17:01:35.225Z,925.38
2018-11-22T17:03:06.702Z,925.47
2018-11-22T17:04:38.288Z,925.80
2018-11-22T17:06:09.876Z,925.59
2018-11-22T17:07:43.428Z,925.45
2018-11-22T17:09:13.557Z,925.31
2018-11-22T17:10:44.633Z,924.98
2018-11-22T17:12:16.221Z,924.85
2018-11-22T17:13:47.942Z,924.79
2018-11-22T17:15:19.394Z,924.72
2018-11-22T17:16:50.981Z,924.76
2018-11-22T17:18:22.566Z,924.77
2018-11-22T17:24:29.427Z,925.30
2018-11-22T17:26:00.491Z,925.33
2018-11-22T17:27:32.074Z,925.22
2018-11-22T17:29:03.660Z,924.88
2018-11-22T17:33:38.898Z,924.58
2018-11-22T17:35:10.211Z,924.63
2018-11-22T17:38:13.162Z,925.19
2018-11-22T17:39:44.745Z,925.00
2018-11-22T17:41:16.328Z,924.70
2018-11-22T17:42:47.912Z,924.58
2018-11-22T17:44:19.496Z,924.55
2018-11-22T17:45:51.080Z,924.57
2018-11-22T17:47:22.666Z,925.21
2018-11-22T17:50:25.829Z,924.74
2018-11-22T17:51:57.511Z,925.15
2018-11-22T17:53:28.994Z,924.93
2018-11-22T17:55:00.578Z,925.44
2018-11-22T17:56:32.160Z,924.75
2018-11-22T17:58:04.051Z,924.82
2018-11-22T17:59:35.329Z,924.86
2018-11-22T18:01:07.112Z,924.73
2018-11-22T18:02:38.493Z,924.62
2018-11-22T18:04:10.076Z,924.51
2018-11-22T18:08:44.903Z,924.32
2018-11-22T18:10:16.512Z,924.43
2018-11-22T18:13:20.479Z,924.32
2018-11-22T18:14:51.203Z,924.26
2018-11-22T18:16:23.061Z,924.29
2018-11-22T18:17:54.312Z,924.32
2018-11-22T18:19:25.902Z,924.41
2018-11-22T18:20:58.007Z,924.34
2018-11-22T18:22:29.091Z,924.25
2018-11-22T18:24:00.633Z,924.23
2018-11-22T18:25:32.213Z,924.21
2018-11-22T18:28:36.009Z,924.32
2018-11-22T18:30:07.560Z,924.32
2018-11-22T18:31:38.533Z,924.30
2018-11-22T18:34:42.428Z,924.27
2018-11-22T18:36:13.272Z,924.25
2018-11-22T18:37:45.462Z,924.34
2018-11-22T18:39:17.421Z,924.38
2018-11-22T18:40:48.214Z,924.30
2018-11-22T18:42:19.590Z,924.20
2018-11-22T18:43:51.170Z,924.20
2018-11-22T18:45:22.749Z,924.20
2018-11-22T18:48:26.542Z,924.38
2018-11-22T18:49:57.488Z,924.33
2018-11-22T18:51:29.066Z,924.35
2018-11-22T18:53:00.644Z,924.37
2018-11-22T18:54:32.224Z,924.36
2018-11-22T18:57:35.383Z,924.30
2018-11-22T19:00:38.544Z,924.18
2018-11-22T19:05:13.275Z,924.28
2018-11-22T19:06:44.952Z,924.28
2018-11-22T19:08:16.432Z,924.25
2018-11-22T19:11:19.585Z,924.28
2018-11-22T19:14:22.744Z,924.35
2018-11-22T19:15:54.318Z,924.29
2018-11-22T19:17:25.896Z,924.30
2018-11-22T19:18:57.981Z,924.34
2018-11-22T19:20:29.050Z,924.34
2018-11-22T19:22:01.163Z,924.38
2018-11-22T19:23:32.737Z,924.36
2018-11-22T19:25:04.295Z,924.33
2018-11-22T19:26:35.458Z,924.25
2018-11-22T19:28:06.946Z,924.22
2018-11-22T19:31:10.090Z,924.19
2018-11-22T19:32:41.666Z,924.15
2018-11-22T19:34:13.251Z,924.10
2018-11-22T19:35:45.027Z,924.03
2018-11-22T19:38:47.976Z,924.07
2018-11-22T19:40:20.084Z,924.08
2018-11-22T19:41:51.125Z,924.07
2018-11-22T19:43:22.703Z,924.03
2018-11-22T19:44:54.891Z,924.07
2018-11-22T19:46:25.855Z,924.13
2018-11-22T19:47:57.434Z,924.18
2018-11-22T19:49:29.009Z,924.15
2018-11-22T19:51:05.616Z,924.15
2018-11-22T19:54:03.950Z,924.16
2018-11-22T19:55:35.318Z,924.18
2018-11-22T19:57:06.895Z,924.20
2018-11-22T19:58:38.472Z,924.31
2018-11-22T20:00:10.050Z,924.35
2018-11-22T20:01:41.632Z,924.54
2018-11-22T20:03:13.304Z,924.36
2018-11-22T20:04:44.802Z,924.34
2018-11-22T20:06:16.359Z,924.42
2018-11-22T20:07:48.140Z,924.38
2018-11-22T20:09:19.515Z,924.36
2018-11-22T20:10:51.091Z,924.39
2018-11-22T20:12:22.974Z,924.35
2018-11-22T20:13:54.449Z,924.31
2018-11-22T20:15:25.824Z,924.44
2018-11-22T20:18:28.976Z,924.41
2018-11-22T20:20:00.554Z,924.29
2018-11-22T20:23:04.112Z,924.24
2018-11-22T20:24:35.283Z,924.16
2018-11-22T20:29:10.520Z,923.97
2018-11-22T20:30:41.589Z,923.99
2018-11-22T20:32:13.165Z,924.02
2018-11-22T20:35:16.320Z,923.98
2018-11-22T20:36:47.896Z,924.07
2018-11-22T20:38:19.471Z,924.14
2018-11-22T20:39:51.047Z,924.27
2018-11-22T20:41:22.724Z,924.37
2018-11-22T20:42:55.140Z,924.39
2018-11-22T20:44:26.082Z,924.38
2018-11-22T20:47:29.134Z,924.36
2018-11-22T20:49:00.822Z,924.32
2018-11-22T20:52:03.662Z,924.28
2018-11-22T20:53:35.238Z,924.24
2018-11-22T20:56:38.390Z,924.31
2018-11-22T20:58:09.971Z,924.36
2018-11-22T20:59:41.845Z,924.31
2018-11-22T21:01:13.119Z,924.33
2018-11-22T21:02:44.694Z,924.29
2018-11-22T21:04:16.275Z,924.24
2018-11-22T21:05:48.789Z,924.19
2018-11-22T21:07:19.424Z,924.07
2018-11-22T21:08:50.997Z,924.08
2018-11-22T21:10:22.573Z,924.07
2018-11-22T21:11:54.148Z,924.10
2018-11-22T21:13:26.029Z,924.11
2018-11-22T21:14:57.299Z,924.23
2018-11-22T21:19:32.126Z,924.26
2018-11-22T21:22:35.176Z,924.31
2018-11-22T21:24:06.751Z,924.26
2018-11-22T21:25:38.326Z,924.28
2018-11-22T21:27:09.902Z,924.22
2018-11-22T21:28:41.476Z,924.22
2018-11-22T21:30:13.051Z,924.20
2018-11-22T21:31:44.626Z,924.21
2018-11-22T21:33:16.200Z,924.27
2018-11-22T21:34:47.776Z,924.28
2018-11-22T21:36:19.351Z,924.27
2018-11-22T21:37:51.764Z,924.32
2018-11-22T21:39:22.502Z,924.36
2018-11-22T21:40:54.075Z,924.30
2018-11-22T21:42:25.649Z,924.25